createdAt,value
2022-07-30T00:02:06.912Z,588.08
2022-07-30T00:07:35.490Z,596.95
2022-07-30T00:10:05.887Z,461.67
2022-07-30T00:12:34.279Z,536.92
2022-07-30T00:15:03.873Z,447.30
2022-07-30T00:17:34.512Z,423.02
2022-07-30T00:20:02.934Z,487.02
2022-07-30T00:22:33.261Z,424.90
2022-07-30T00:25:10.282Z,435.33
2022-07-30T00:27:39.629Z,548.28
2022-07-30T00:30:15.167Z,440.40
2022-07-30T00:32:43.786Z,450.42
2022-07-30T00:35:13.888Z,392.95
2022-07-30T00:37:43.291Z,352.53
2022-07-30T00:40:18.577Z,358.37
2022-07-30T00:42:50.968Z,435.88
2022-07-30T00:45:22.095Z,265.00
2022-07-30T00:47:52.682Z,261.85
2022-07-30T00:50:27.650Z,179.60
2022-07-30T00:52:54.831Z,184.70
2022-07-30T00:55:22.192Z,156.00
2022-07-30T00:57:49.392Z,106.73
2022-07-30T01:00:18.728Z,153.87
2022-07-30T01:02:48.682Z,115.38
2022-07-30T01:05:19.277Z,115.18
2022-07-30T01:07:54.818Z,61.27
2022-07-30T01:10:25.024Z,58.72
2022-07-30T01:12:54.935Z,51.53
2022-07-30T01:15:22.322Z,47.93
2022-07-30T01:17:52.948Z,41.43
2022-07-30T01:20:46.013Z,41.30
2022-07-30T01:23:23.278Z,58.30
2022-07-30T01:26:07.476Z,42.00
2022-07-30T01:28:38.831Z,41.33
2022-07-30T01:31:08.467Z,33.83
2022-07-30T01:33:40.456Z,25.43
2022-07-30T01:36:14.070Z,17.67
2022-07-30T01:38:44.987Z,18.05
2022-07-30T01:41:18.309Z,28.35
2022-07-30T01:43:46.754Z,21.50
2022-07-30T01:46:16.428Z,21.43
2022-07-30T01:48:46.966Z,17.63
2022-07-30T01:51:19.427Z,15.33
2022-07-30T01:53:51.397Z,19.05
2022-07-30T01:56:24.740Z,16.60
2022-07-30T01:58:55.442Z,15.43
2022-07-30T02:01:27.252Z,16.33
2022-07-30T02:04:01.765Z,15.90
2022-07-30T02:06:38.928Z,16.70
2022-07-30T02:09:11.152Z,15.87
2022-07-30T02:12:05.011Z,16.03
2022-07-30T02:14:44.796Z,15.93
2022-07-30T02:17:18.924Z,15.30
2022-07-30T02:19:51.073Z,15.50
2022-07-30T02:22:20.796Z,15.80
2022-07-30T02:24:51.989Z,14.67
2022-07-30T02:27:28.788Z,15.13
2022-07-30T02:29:59.289Z,15.97
2022-07-30T02:32:35.069Z,16.07
2022-07-30T02:35:11.694Z,15.57
2022-07-30T02:37:43.987Z,16.17
2022-07-30T02:40:15.923Z,16.30
2022-07-30T02:42:46.499Z,16.83
2022-07-30T02:45:18.481Z,16.80
2022-07-30T02:47:53.361Z,16.83
2022-07-30T02:50:21.894Z,17.07
2022-07-30T02:52:50.930Z,17.43
2022-07-30T02:55:18.647Z,17.27
2022-07-30T02:57:46.927Z,17.63
2022-07-30T03:00:14.515Z,18.27
2022-07-30T03:02:43.803Z,18.17
2022-07-30T03:05:13.577Z,18.90
2022-07-30T03:07:41.990Z,18.10
2022-07-30T03:10:11.196Z,18.43
2022-07-30T03:12:40.345Z,18.97
2022-07-30T03:15:08.491Z,17.47
2022-07-30T03:17:42.990Z,17.30
2022-07-30T03:20:12.830Z,17.13
2022-07-30T03:22:44.402Z,17.30
2022-07-30T03:25:14.961Z,17.00
2022-07-30T03:27:43.615Z,16.80
2022-07-30T03:30:12.299Z,16.67
2022-07-30T03:32:40.291Z,16.17
2022-07-30T03:35:16.972Z,16.37
2022-07-30T03:37:46.704Z,15.63
2022-07-30T03:40:15.027Z,16.63
2022-07-30T03:42:45.370Z,16.80
2022-07-30T03:45:15.700Z,16.57
2022-07-30T03:47:44.410Z,17.00
2022-07-30T03:50:14.112Z,15.73
2022-07-30T03:52:42.297Z,15.40
2022-07-30T03:55:14.778Z,15.77
2022-07-30T03:57:51.218Z,15.60
2022-07-30T04:00:23.739Z,15.55
2022-07-30T04:02:53.951Z,15.90
2022-07-30T04:05:37.368Z,14.60
2022-07-30T04:08:08.198Z,14.38
2022-07-30T04:10:35.842Z,15.00
2022-07-30T04:13:29.289Z,17.85
2022-07-30T04:16:39.713Z,18.73
2022-07-30T04:19:12.393Z,31.33
2022-07-30T04:21:41.452Z,44.05
2022-07-30T04:24:12.640Z,100.30
2022-07-30T04:26:40.047Z,119.22
2022-07-30T04:29:16.606Z,129.00
2022-07-30T04:31:46.864Z,112.70
2022-07-30T04:34:32.701Z,116.65
2022-07-30T04:37:00.653Z,90.70
2022-07-30T04:39:29.510Z,91.50
2022-07-30T04:41:56.664Z,71.63
2022-07-30T04:44:35.574Z,105.10
2022-07-30T04:47:28.980Z,70.13
2022-07-30T04:50:16.722Z,88.45
2022-07-30T04:52:46.358Z,66.70
2022-07-30T04:55:21.041Z,62.03
2022-07-30T04:57:51.432Z,45.78
2022-07-30T05:00:19.236Z,70.82
2022-07-30T05:02:48.199Z,28.65
2022-07-30T05:05:17.498Z,28.00
2022-07-30T05:07:46.550Z,29.73
2022-07-30T05:10:14.731Z,29.83
2022-07-30T05:12:42.950Z,30.92
2022-07-30T05:15:11.569Z,24.95
2022-07-30T05:17:39.127Z,26.15
2022-07-30T05:20:09.648Z,28.65
2022-07-30T05:22:55.495Z,33.38
2022-07-30T05:25:24.371Z,32.33
2022-07-30T05:27:56.664Z,46.33
2022-07-30T05:30:27.559Z,34.30
2022-07-30T05:32:57.662Z,45.08
2022-07-30T05:35:26.100Z,41.78
2022-07-30T05:37:54.250Z,35.05
2022-07-30T05:40:22.124Z,40.15
2022-07-30T05:43:04.898Z,77.85
2022-07-30T05:45:32.396Z,58.42
2022-07-30T05:47:59.621Z,126.70
2022-07-30T05:50:26.829Z,42.10
2022-07-30T05:52:55.931Z,90.95
2022-07-30T05:55:43.404Z,37.65
2022-07-30T05:58:19.251Z,33.30
2022-07-30T06:00:46.918Z,34.88
2022-07-30T06:03:14.375Z,42.13
2022-07-30T06:05:59.462Z,44.92
2022-07-30T06:08:26.642Z,75.95
2022-07-30T06:10:53.886Z,43.88
2022-07-30T06:13:21.251Z,53.65
2022-07-30T06:15:48.694Z,81.47
2022-07-30T06:18:16.032Z,113.28
2022-07-30T06:20:49.454Z,226.95
2022-07-30T06:23:25.916Z,414.85
2022-07-30T06:26:09.711Z,780.95
2022-07-30T06:28:38.820Z,714.67
2022-07-30T06:31:15.401Z,780.78
2022-07-30T06:33:43.374Z,932.08
2022-07-30T06:36:14.068Z,999.90
2022-07-30T06:39:00.043Z,999.90
2022-07-30T06:41:47.153Z,999.90
2022-07-30T06:44:15.453Z,830.60
2022-07-30T06:47:07.156Z,586.58
2022-07-30T06:49:39.032Z,675.15
2022-07-30T06:52:09.143Z,903.10
2022-07-30T06:54:36.923Z,765.10
2022-07-30T06:57:16.386Z,947.42
2022-07-30T06:59:57.155Z,513.03
2022-07-30T07:02:44.965Z,689.00
2022-07-30T07:05:13.920Z,761.38
2022-07-30T07:07:56.497Z,855.53
2022-07-30T07:10:27.238Z,918.65
2022-07-30T07:13:03.087Z,556.90
2022-07-30T07:15:36.319Z,910.20
2022-07-30T07:18:06.886Z,673.00
2022-07-30T07:20:37.448Z,696.10
2022-07-30T07:23:09.525Z,999.90
2022-07-30T07:25:41.217Z,822.03
2022-07-30T07:28:11.660Z,650.03
2022-07-30T07:30:43.444Z,537.65
2022-07-30T07:33:12.208Z,999.90
2022-07-30T07:35:49.621Z,999.90
2022-07-30T07:38:25.024Z,999.90
2022-07-30T07:40:54.243Z,999.90
2022-07-30T07:43:22.038Z,359.52
2022-07-30T07:45:51.157Z,657.33
2022-07-30T07:48:19.299Z,558.05
2022-07-30T07:50:52.457Z,849.45
2022-07-30T07:53:25.450Z,693.75
2022-07-30T07:55:52.947Z,864.15
2022-07-30T07:58:25.399Z,999.90
2022-07-30T08:00:54.834Z,999.90
2022-07-30T08:03:26.025Z,999.90
2022-07-30T08:06:06.026Z,999.90
2022-07-30T08:08:48.202Z,999.90
2022-07-30T08:11:35.665Z,999.90
2022-07-30T08:14:34.801Z,999.90
2022-07-30T08:17:41.974Z,999.90
2022-07-30T08:20:16.220Z,999.90
2022-07-30T08:22:44.719Z,999.90
2022-07-30T08:25:11.974Z,999.90
2022-07-30T08:27:49.839Z,999.90
2022-07-30T08:30:17.160Z,999.90
2022-07-30T08:32:45.169Z,999.90
2022-07-30T08:35:12.726Z,999.90
2022-07-30T08:37:42.150Z,999.90
2022-07-30T08:40:10.153Z,999.90
2022-07-30T08:42:47.162Z,999.90
2022-07-30T08:45:14.833Z,999.90
2022-07-30T08:47:44.864Z,999.90
2022-07-30T08:50:12.947Z,999.90
2022-07-30T08:53:15.675Z,999.90
2022-07-30T08:55:44.843Z,999.90
2022-07-30T08:58:29.480Z,999.90
2022-07-30T09:00:57.834Z,999.90
2022-07-30T09:03:25.223Z,999.90
2022-07-30T09:05:52.700Z,999.90
2022-07-30T09:08:20.027Z,999.90
2022-07-30T09:10:52.764Z,999.90
2022-07-30T09:13:34.428Z,999.90
2022-07-30T09:16:03.192Z,999.90
2022-07-30T09:18:38.348Z,999.90
2022-07-30T09:21:24.034Z,999.90
2022-07-30T09:24:09.231Z,999.90
2022-07-30T09:27:00.759Z,999.90
2022-07-30T09:29:37.157Z,999.90
2022-07-30T09:32:22.921Z,999.90
2022-07-30T09:35:14.776Z,999.90
2022-07-30T09:38:06.753Z,999.90
2022-07-30T09:40:57.516Z,999.90
2022-07-30T09:43:51.419Z,999.90
2022-07-30T09:46:50.893Z,999.90
2022-07-30T09:49:32.972Z,999.90
2022-07-30T09:52:15.840Z,999.90
2022-07-30T09:55:07.177Z,999.90
2022-07-30T09:58:01.537Z,999.90
2022-07-30T10:00:36.393Z,999.90
2022-07-30T10:03:46.621Z,999.90
2022-07-30T10:06:44.384Z,999.90
2022-07-30T10:09:37.418Z,999.90
2022-07-30T10:12:10.501Z,999.90
2022-07-30T10:14:43.973Z,999.90
2022-07-30T10:17:13.542Z,999.90
2022-07-30T10:19:47.251Z,999.90
2022-07-30T10:22:25.268Z,999.90
2022-07-30T10:25:16.312Z,999.90
2022-07-30T10:28:03.671Z,999.90
2022-07-30T10:30:33.470Z,999.90
2022-07-30T10:33:01.822Z,999.90
2022-07-30T10:35:34.699Z,999.90
2022-07-30T10:38:13.762Z,999.90
2022-07-30T10:40:58.566Z,999.90
2022-07-30T10:43:47.562Z,999.90
2022-07-30T10:46:33.862Z,999.90
2022-07-30T10:49:18.460Z,999.90
2022-07-30T10:51:51.704Z,999.90
2022-07-30T10:54:36.541Z,999.90
2022-07-30T10:57:15.079Z,999.90
2022-07-30T10:59:55.498Z,999.90
2022-07-30T11:02:30.686Z,999.90
2022-07-30T11:05:18.194Z,999.90
2022-07-30T11:07:47.179Z,999.90
2022-07-30T11:10:34.843Z,999.90
2022-07-30T11:13:02.048Z,999.90
2022-07-30T11:15:51.957Z,999.90
2022-07-30T11:18:19.552Z,999.90
2022-07-30T11:21:21.179Z,999.90
2022-07-30T11:23:54.998Z,999.90
2022-07-30T11:26:40.932Z,999.90
2022-07-30T11:29:33.299Z,999.90
2022-07-30T11:32:26.610Z,999.90
2022-07-30T11:35:34.329Z,999.90
2022-07-30T11:38:04.475Z,999.90
2022-07-30T11:40:35.927Z,999.90
2022-07-30T11:43:34.673Z,999.90
2022-07-30T11:46:16.398Z,999.90
2022-07-30T11:48:56.710Z,999.90
2022-07-30T11:51:24.290Z,999.90
2022-07-30T11:54:01.808Z,999.90
2022-07-30T11:56:29.216Z,999.90
2022-07-30T11:59:07.436Z,999.90
2022-07-30T12:01:35.555Z,999.90
2022-07-30T12:04:06.912Z,999.90
2022-07-30T12:06:36.362Z,999.90
2022-07-30T12:09:03.661Z,999.90
2022-07-30T12:11:35.163Z,999.90
2022-07-30T12:14:03.226Z,999.90
2022-07-30T12:16:32.634Z,999.90
2022-07-30T12:19:04.664Z,999.90
2022-07-30T12:21:32.660Z,999.90
2022-07-30T12:24:02.310Z,999.90
2022-07-30T12:26:32.077Z,999.90
2022-07-30T12:29:02.069Z,999.90
2022-07-30T12:31:29.609Z,999.90
2022-07-30T12:33:59.103Z,999.90
2022-07-30T12:36:30.663Z,999.90
2022-07-30T12:38:59.071Z,999.90
2022-07-30T12:41:51.308Z,999.90
2022-07-30T12:44:42.130Z,999.90
2022-07-30T12:47:38.720Z,999.90
2022-07-30T12:50:17.829Z,999.90
2022-07-30T12:52:51.376Z,999.90
2022-07-30T12:55:27.774Z,999.90
2022-07-30T12:58:08.768Z,999.90
2022-07-30T13:00:51.015Z,999.90
2022-07-30T13:03:22.579Z,999.90
2022-07-30T13:05:55.253Z,999.90
2022-07-30T13:08:46.937Z,999.90
2022-07-30T13:11:14.990Z,999.90
2022-07-30T13:13:42.500Z,999.90
2022-07-30T13:16:10.630Z,999.90
2022-07-30T13:18:38.249Z,999.90
2022-07-30T13:21:09.019Z,999.90
2022-07-30T13:23:40.389Z,999.90
2022-07-30T13:26:09.227Z,999.90
2022-07-30T13:28:36.988Z,999.90
2022-07-30T13:31:04.355Z,999.90
2022-07-30T13:33:31.790Z,999.90
2022-07-30T13:35:59.184Z,999.90
2022-07-30T13:38:26.939Z,999.90
2022-07-30T13:40:57.003Z,999.90
2022-07-30T13:43:27.694Z,999.90
2022-07-30T13:45:59.904Z,999.90
2022-07-30T13:48:27.787Z,999.90
2022-07-30T13:50:55.134Z,999.90
2022-07-30T13:53:22.794Z,999.90
2022-07-30T13:55:50.073Z,999.90
2022-07-30T13:58:17.328Z,999.90
2022-07-30T14:00:48.147Z,999.90
2022-07-30T14:03:15.902Z,999.90
2022-07-30T14:05:43.744Z,999.90
2022-07-30T14:08:12.041Z,999.90
2022-07-30T14:10:40.173Z,999.90
2022-07-30T14:13:09.747Z,999.90
2022-07-30T14:15:37.569Z,999.90
2022-07-30T14:18:07.361Z,999.90
2022-07-30T14:20:35.014Z,999.90
2022-07-30T14:23:02.178Z,999.90
2022-07-30T14:25:29.501Z,999.90
2022-07-30T14:27:56.658Z,999.90
2022-07-30T14:30:24.610Z,999.90
2022-07-30T14:32:58.296Z,999.90
2022-07-30T14:35:27.722Z,999.90
2022-07-30T14:37:54.978Z,999.90
2022-07-30T14:40:22.297Z,999.90
2022-07-30T14:42:49.504Z,999.90
2022-07-30T14:45:16.702Z,999.90
2022-07-30T14:47:43.858Z,999.90
2022-07-30T14:50:11.071Z,999.90
2022-07-30T14:52:39.032Z,999.90
2022-07-30T14:55:07.875Z,999.90
2022-07-30T14:57:35.272Z,999.90
2022-07-30T15:00:03.933Z,999.90
2022-07-30T15:02:31.128Z,999.90
2022-07-30T15:04:58.351Z,999.90
2022-07-30T15:07:25.622Z,999.90
2022-07-30T15:09:53.206Z,999.90
2022-07-30T15:12:26.539Z,999.90
2022-07-30T15:14:54.480Z,999.90
2022-07-30T15:17:22.838Z,999.90
2022-07-30T15:19:51.440Z,999.90
2022-07-30T15:22:20.052Z,999.90
2022-07-30T15:24:47.762Z,999.90
2022-07-30T15:27:14.977Z,999.90
2022-07-30T15:29:43.325Z,999.90
2022-07-30T15:32:10.528Z,999.90
2022-07-30T15:34:37.708Z,999.90
2022-07-30T15:37:06.449Z,999.90
2022-07-30T15:39:36.257Z,999.90
2022-07-30T15:42:05.766Z,999.90
2022-07-30T15:44:33.988Z,999.90
2022-07-30T15:47:03.518Z,999.90
2022-07-30T15:49:32.102Z,999.90
2022-07-30T15:52:00.198Z,999.90
2022-07-30T15:54:29.710Z,999.90
2022-07-30T15:57:01.326Z,999.90
2022-07-30T15:59:30.018Z,999.90
2022-07-30T16:01:57.924Z,999.90
2022-07-30T16:04:31.378Z,999.90
2022-07-30T16:07:04.129Z,999.90
2022-07-30T16:09:31.346Z,999.90
2022-07-30T16:11:59.092Z,999.90
2022-07-30T16:14:26.992Z,999.90
2022-07-30T16:16:54.491Z,999.90
2022-07-30T16:19:21.952Z,999.90
2022-07-30T16:21:49.187Z,999.90
2022-07-30T16:24:16.817Z,999.90
2022-07-30T16:26:44.330Z,999.90
2022-07-30T16:29:13.838Z,999.90
2022-07-30T16:31:41.706Z,999.90
2022-07-30T16:34:11.210Z,999.90
2022-07-30T16:36:38.432Z,999.90
2022-07-30T16:39:06.292Z,999.90
2022-07-30T16:41:33.510Z,999.90
2022-07-30T16:44:00.936Z,999.90
2022-07-30T16:46:28.181Z,999.90
2022-07-30T16:48:55.482Z,999.90
2022-07-30T16:51:22.781Z,999.90
2022-07-30T16:53:49.990Z,999.90
2022-07-30T16:56:17.247Z,999.90
2022-07-30T16:58:44.440Z,999.90
2022-07-30T17:01:11.922Z,999.90
2022-07-30T17:03:39.448Z,999.90
2022-07-30T17:06:06.789Z,999.90
2022-07-30T17:08:34.198Z,999.90
2022-07-30T17:11:01.613Z,999.90
2022-07-30T17:13:28.803Z,999.90
2022-07-30T17:15:55.964Z,999.90
2022-07-30T17:18:23.318Z,999.90
2022-07-30T17:20:52.585Z,999.90
2022-07-30T17:23:21.259Z,999.90
2022-07-30T17:25:48.441Z,999.90
2022-07-30T17:28:17.994Z,999.90
2022-07-30T17:30:45.879Z,999.90
2022-07-30T17:33:13.585Z,999.90
2022-07-30T17:35:40.906Z,999.90
2022-07-30T17:38:08.193Z,999.90
2022-07-30T17:40:35.414Z,999.90
2022-07-30T17:43:05.884Z,999.90
2022-07-30T17:45:37.298Z,999.90
2022-07-30T17:48:05.602Z,999.90
2022-07-30T17:50:33.878Z,999.90
2022-07-30T17:53:03.354Z,999.90
2022-07-30T17:55:32.335Z,999.90
2022-07-30T17:57:59.532Z,999.90
2022-07-30T18:00:26.859Z,999.90
2022-07-30T18:02:54.100Z,999.90
2022-07-30T18:05:21.298Z,999.90
2022-07-30T18:07:48.479Z,999.90
2022-07-30T18:10:15.703Z,999.90
2022-07-30T18:12:48.665Z,999.90
2022-07-30T18:15:17.936Z,999.90
2022-07-30T18:17:45.275Z,999.90
2022-07-30T18:20:13.427Z,999.90
2022-07-30T18:22:40.918Z,999.90
2022-07-30T18:25:18.724Z,999.90
2022-07-30T18:27:47.648Z,999.90
2022-07-30T18:30:16.082Z,999.90
2022-07-30T18:32:44.902Z,999.90
2022-07-30T18:35:14.727Z,999.90
2022-07-30T18:37:43.448Z,999.90
2022-07-30T18:40:12.892Z,999.90
2022-07-30T18:42:40.201Z,999.90
2022-07-30T18:45:08.046Z,999.90
2022-07-30T18:47:35.267Z,999.90
2022-07-30T18:50:02.638Z,999.90
2022-07-30T18:52:29.870Z,999.90
2022-07-30T18:54:57.059Z,999.90
2022-07-30T18:57:24.292Z,999.90
2022-07-30T18:59:51.485Z,999.90
2022-07-30T19:02:18.716Z,999.90
2022-07-30T19:04:45.904Z,999.90
2022-07-30T19:07:13.110Z,999.90
2022-07-30T19:09:40.320Z,999.90
2022-07-30T19:12:07.942Z,999.90
2022-07-30T19:14:35.194Z,999.90
2022-07-30T19:17:02.551Z,999.90
2022-07-30T19:19:29.960Z,999.90
2022-07-30T19:21:57.575Z,999.90
2022-07-30T19:24:27.036Z,999.90
2022-07-30T19:26:56.210Z,999.90
2022-07-30T19:29:23.394Z,999.90
2022-07-30T19:31:50.589Z,999.90
2022-07-30T19:34:17.810Z,999.90
2022-07-30T19:36:45.021Z,999.90
2022-07-30T19:39:21.244Z,999.90
2022-07-30T19:41:51.076Z,999.90
2022-07-30T19:44:19.036Z,999.90
2022-07-30T19:46:48.761Z,999.90
2022-07-30T19:49:19.832Z,999.90
2022-07-30T19:52:10.169Z,203.43
2022-07-30T19:54:36.664Z,419.83
2022-07-30T19:57:04.466Z,579.75
2022-07-30T19:59:46.233Z,563.42
2022-07-30T20:02:18.859Z,688.15
2022-07-30T20:04:49.840Z,852.83
2022-07-30T20:07:17.082Z,606.42
2022-07-30T20:09:44.998Z,999.90
2022-07-30T20:12:15.892Z,999.90
2022-07-30T20:14:44.690Z,999.90
2022-07-30T20:17:12.022Z,999.90
2022-07-30T20:19:40.649Z,999.90
2022-07-30T20:22:15.814Z,999.90
2022-07-30T20:24:42.989Z,999.90
2022-07-30T20:27:37.337Z,999.90
2022-07-30T20:29:58.933Z,999.90
2022-07-30T20:32:26.296Z,784.38
2022-07-30T20:34:53.627Z,999.90
2022-07-30T20:37:22.516Z,999.90
2022-07-30T20:39:50.458Z,999.90
2022-07-30T20:42:18.680Z,999.90
2022-07-30T20:44:49.407Z,999.90
2022-07-30T20:47:34.254Z,999.90
2022-07-30T20:50:02.194Z,999.90
2022-07-30T20:52:29.402Z,999.90
2022-07-30T20:54:56.677Z,644.30
2022-07-30T20:57:55.171Z,999.90
2022-07-30T21:00:12.543Z,279.45
2022-07-30T21:02:39.718Z,983.70
2022-07-30T21:05:07.344Z,989.25
2022-07-30T21:07:36.363Z,994.92
2022-07-30T21:10:04.727Z,759.95
2022-07-30T21:12:36.287Z,756.53
2022-07-30T21:15:05.406Z,999.90
2022-07-30T21:17:50.782Z,999.90
2022-07-30T21:20:27.863Z,999.90
2022-07-30T21:23:02.103Z,999.90
2022-07-30T21:25:33.067Z,999.90
2022-07-30T21:28:02.957Z,999.90
2022-07-30T21:30:32.138Z,999.90
2022-07-30T21:33:00.137Z,999.90
2022-07-30T21:35:31.727Z,999.90
2022-07-30T21:37:59.522Z,999.90
2022-07-30T21:40:27.629Z,999.90
2022-07-30T21:42:56.276Z,999.90
2022-07-30T21:45:23.881Z,999.90
2022-07-30T21:47:55.549Z,999.90
2022-07-30T21:50:22.847Z,999.90
2022-07-30T21:52:50.562Z,999.90
2022-07-30T21:55:18.802Z,999.90
2022-07-30T21:57:48.789Z,999.90
2022-07-30T22:00:22.379Z,999.90
2022-07-30T22:02:54.002Z,999.90
2022-07-30T22:05:23.483Z,999.90
2022-07-30T22:08:07.739Z,999.90
2022-07-30T22:10:36.122Z,999.90
2022-07-30T22:13:03.689Z,999.90
2022-07-30T22:15:31.953Z,999.90
2022-07-30T22:18:00.755Z,999.90
2022-07-30T22:20:29.186Z,999.90
2022-07-30T22:22:57.979Z,999.90
2022-07-30T22:28:13.767Z,999.90
2022-07-30T22:30:44.363Z,999.90
2022-07-30T22:33:17.916Z,999.90
2022-07-30T22:35:49.496Z,999.90
2022-07-30T22:38:19.729Z,999.90
2022-07-30T22:40:47.126Z,999.90
2022-07-30T22:43:16.745Z,999.90
2022-07-30T22:45:48.215Z,999.90
2022-07-30T22:48:17.733Z,999.90
2022-07-30T22:50:48.567Z,999.90
2022-07-30T22:54:10.784Z,999.90
2022-07-30T22:56:06.850Z,999.90
2022-07-30T22:58:41.557Z,999.90
2022-07-30T23:01:11.046Z,999.90
2022-07-30T23:03:38.314Z,999.90
2022-07-30T23:06:05.594Z,999.90
2022-07-30T23:08:33.778Z,999.90
2022-07-30T23:11:01.115Z,999.90
2022-07-30T23:12:33.010Z,999.90
2022-07-30T23:13:29.457Z,999.90
2022-07-30T23:15:56.655Z,999.90
2022-07-30T23:18:23.917Z,999.90
2022-07-30T23:20:51.068Z,999.90
2022-07-30T23:23:18.249Z,999.90
2022-07-30T23:25:45.506Z,999.90
2022-07-30T23:28:12.654Z,999.90
2022-07-30T23:30:39.870Z,999.90
2022-07-30T23:33:07.032Z,999.90
2022-07-30T23:35:34.278Z,999.90
2022-07-30T23:38:02.094Z,999.90
2022-07-30T23:40:29.884Z,999.90
2022-07-30T23:42:57.162Z,999.90
2022-07-30T23:45:24.350Z,999.90
2022-07-30T23:48:01.876Z,999.90
2022-07-30T23:50:32.299Z,999.90
2022-07-30T23:53:01.050Z,999.90
2022-07-30T23:55:29.553Z,999.90
2022-07-30T23:57:57.853Z,999.90
